Aviation Digital Data Service (ADDS)

Output produced by TAFs form (2342 UTC 29 September 2016)
found at http://aviationweather.gov/adds/tafs/
 
KGJT 292320Z 3000/3024 00000KT P6SM VCSH OVC060 
     FM300200 15007KT P6SM VCSH OVC070 
     FM300500 12007KT P6SM OVC060 
     FM301800 16004KT P6SM BKN060 
     FM302100 29006KT P6SM VCTS BKN060CB